Time;durP1;ratioP1;P1;durP2;ratioP2;P2;SDS_P1;SDS_P2;PMS_P1;PMS_P2;Temp;Humidity;BMP_temperature;BMP_pressure;BME280_temperature;BME280_humidity;BME280_pressure;Samples;Min_cycle;Max_cycle;Signal;HPM_P1;HPM_P2
2022/07/20 00:00:15;;;;;;;7.62;4.78;;;24.30;47.60;;;;;;2328027;57;21839;-76
2022/07/20 00:02:43;;;;;;;9.27;5.15;;;24.30;47.60;;;;;;2328210;57;21042;-76
2022/07/20 00:05:10;;;;;;;10.40;4.65;;;24.30;47.90;;;;;;2327148;57;21066;-76
2022/07/20 00:07:37;;;;;;;6.15;4.72;;;24.30;47.80;;;;;;2327984;57;21050;-76
2022/07/20 00:12:51;;;;;;;9.73;5.12;;;24.30;48.00;;;;;;2326927;57;21498;-76
2022/07/20 00:15:19;;;;;;;7.07;4.30;;;24.20;48.00;;;;;;2327315;57;21125;-77
2022/07/20 00:17:46;;;;;;;10.88;4.75;;;24.20;48.00;;;;;;2328121;57;21118;-77
2022/07/20 00:20:13;;;;;;;7.87;4.72;;;24.20;48.00;;;;;;2327311;57;21046;-77
2022/07/20 00:22:41;;;;;;;7.00;4.80;;;24.20;48.20;;;;;;2571134;54;21043;-76
2022/07/20 00:25:09;;;;;;;6.28;4.95;;;24.20;48.30;;;;;;2326992;57;21102;-77
2022/07/20 00:27:36;;;;;;;8.35;5.10;;;24.20;48.30;;;;;;2327659;57;21106;-77
2022/07/20 00:30:05;;;;;;;7.22;4.78;;;24.20;48.30;;;;;;2327822;57;21066;-77
2022/07/20 00:32:37;;;;;;;7.20;4.43;;;24.10;48.60;;;;;;2327437;57;21058;-77
2022/07/20 00:35:07;;;;;;;10.38;5.20;;;24.10;48.80;;;;;;2327693;57;21070;-77
2022/07/20 00:37:34;;;;;;;6.70;5.10;;;24.10;48.70;;;;;;2326897;57;21133;-77
2022/07/20 00:40:03;;;;;;;5.65;4.28;;;24.10;49.10;;;;;;2327647;57;21066;-76
2022/07/20 00:42:31;;;;;;;8.98;4.82;;;24.10;48.80;;;;;;2327576;57;21121;-77
2022/07/20 00:44:58;;;;;;;7.22;5.10;;;24.10;48.70;;;;;;2327093;57;21066;-77
2022/07/20 00:47:26;;;;;;;7.65;5.53;;;24.10;48.80;;;;;;2326783;57;21043;-77
2022/07/20 00:49:53;;;;;;;6.57;4.70;;;24.10;48.80;;;;;;2328174;57;21549;-77
2022/07/20 00:52:20;;;;;;;9.75;5.07;;;24.10;48.70;;;;;;2327294;57;21046;-77
2022/07/20 00:54:48;;;;;;;8.18;4.55;;;24.10;48.80;;;;;;2327884;57;21204;-77
2022/07/20 00:57:16;;;;;;;7.82;5.32;;;24.10;48.70;;;;;;2326969;57;21070;-77
2022/07/20 00:59:44;;;;;;;6.40;4.97;;;24.10;48.90;;;;;;2327580;57;21050;-77
2022/07/20 01:02:11;;;;;;;7.93;5.22;;;24.10;48.80;;;;;;2327825;57;21120;-77
2022/07/20 01:04:39;;;;;;;6.07;4.62;;;24.10;48.80;;;;;;2327725;57;21050;-77
2022/07/20 01:07:07;;;;;;;9.38;5.32;;;24.10;48.80;;;;;;2326631;57;21190;-76
2022/07/20 01:09:35;;;;;;;8.60;5.53;;;24.10;49.00;;;;;;2327982;57;21033;-77
2022/07/20 01:12:02;;;;;;;7.50;4.97;;;24.10;49.10;;;;;;2327738;57;21046;-77
2022/07/20 01:14:29;;;;;;;8.25;4.85;;;24.20;49.10;;;;;;2327435;57;21204;-77
2022/07/20 01:16:57;;;;;;;11.70;5.20;;;24.20;49.00;;;;;;2327252;57;21125;-77
2022/07/20 01:19:24;;;;;;;8.60;5.55;;;24.20;49.20;;;;;;2328145;57;21116;-77
2022/07/20 01:21:51;;;;;;;7.70;5.12;;;24.20;48.90;;;;;;2327383;57;21055;-77
2022/07/20 01:24:19;;;;;;;9.45;5.57;;;24.20;49.40;;;;;;2328333;57;21050;-77
2022/07/20 01:26:46;;;;;;;8.32;5.40;;;24.20;48.80;;;;;;2326675;57;21539;-77
2022/07/20 01:29:15;;;;;;;6.35;4.62;;;24.20;49.20;;;;;;2326045;57;21061;-77
2022/07/20 01:31:42;;;;;;;13.23;6.07;;;24.20;49.00;;;;;;2327570;57;21533;-77
2022/07/20 01:34:10;;;;;;;8.95;5.20;;;24.20;48.80;;;;;;2327951;57;21062;-77
2022/07/20 01:36:37;;;;;;;9.50;5.28;;;24.20;48.70;;;;;;2327421;57;21109;-77
2022/07/20 01:39:04;;;;;;;9.50;5.87;;;24.20;48.90;;;;;;2327477;57;21058;-76
2022/07/20 01:41:32;;;;;;;7.93;5.43;;;24.20;48.80;;;;;;2328269;57;21102;-77
2022/07/20 01:43:59;;;;;;;7.95;5.32;;;24.20;49.70;;;;;;2327534;57;21089;-76
2022/07/20 01:46:26;;;;;;;9.50;5.15;;;24.20;49.20;;;;;;2326651;57;21153;-77
2022/07/20 01:48:54;;;;;;;9.18;5.72;;;24.20;49.00;;;;;;2328013;57;21050;-77
2022/07/20 01:51:21;;;;;;;6.68;4.75;;;24.20;48.90;;;;;;2327281;57;21086;-77
2022/07/20 01:53:48;;;;;;;7.43;5.25;;;24.20;49.00;;;;;;2327566;57;21097;-77
2022/07/20 01:56:16;;;;;;;12.27;5.80;;;24.20;48.90;;;;;;2327705;57;21601;-77
2022/07/20 01:58:43;;;;;;;7.47;5.45;;;24.20;48.90;;;;;;2327849;57;21616;-77
2022/07/20 02:01:12;;;;;;;7.37;5.22;;;24.20;49.10;;;;;;2326080;57;21046;-76
2022/07/20 02:03:40;;;;;;;9.48;5.80;;;24.30;49.10;;;;;;2327802;57;21065;-77
2022/07/20 02:06:08;;;;;;;10.00;6.18;;;24.20;49.10;;;;;;2327119;57;21443;-77
2022/07/20 02:08:38;;;;;;;16.27;5.62;;;24.20;48.90;;;;;;2327885;57;21368;-77
2022/07/20 02:11:05;;;;;;;6.85;4.87;;;24.20;49.00;;;;;;2327605;57;21066;-76
2022/07/20 02:13:34;;;;;;;7.68;5.40;;;24.20;48.80;;;;;;2328199;57;21117;-76
2022/07/20 02:16:17;;;;;;;8.65;5.30;;;24.20;48.70;;;;;;2328037;57;21315;-76
2022/07/20 02:18:46;;;;;;;8.20;5.12;;;24.20;48.60;;;;;;2327224;57;21069;-77
2022/07/20 02:21:14;;;;;;;11.95;6.18;;;24.20;48.80;;;;;;2327877;57;21042;-77
2022/07/20 02:23:42;;;;;;;9.27;5.68;;;24.20;48.90;;;;;;2327795;57;21042;-77
2022/07/20 02:26:09;;;;;;;7.68;5.10;;;24.20;49.00;;;;;;2326773;57;21599;-77
2022/07/20 02:28:37;;;;;;;12.32;5.75;;;24.20;49.00;;;;;;2327870;57;21668;-76
2022/07/20 02:31:05;;;;;;;10.50;6.10;;;24.20;49.20;;;;;;2328264;57;21049;-77
2022/07/20 02:33:33;;;;;;;9.23;5.40;;;24.20;48.90;;;;;;2326926;57;21054;-77
2022/07/20 02:36:01;;;;;;;7.07;5.62;;;24.20;48.80;;;;;;2327888;57;21030;-77
2022/07/20 02:38:28;;;;;;;9.32;5.70;;;24.20;49.10;;;;;;2327708;57;21062;-76
2022/07/20 02:40:55;;;;;;;8.70;5.78;;;24.20;48.60;;;;;;2328116;57;21575;-77
2022/07/20 02:43:23;;;;;;;7.05;5.78;;;24.20;48.60;;;;;;2327548;57;21062;-77
2022/07/20 02:45:50;;;;;;;7.82;5.47;;;24.20;48.70;;;;;;2326970;57;21054;-77
2022/07/20 02:48:17;;;;;;;8.00;5.60;;;24.10;48.70;;;;;;2327839;57;21564;-77
2022/07/20 02:50:45;;;;;;;9.20;4.93;;;24.10;48.80;;;;;;2327886;57;21496;-77
2022/07/20 02:53:13;;;;;;;10.90;5.57;;;24.10;48.70;;;;;;2328082;57;21109;-76
2022/07/20 02:55:42;;;;;;;8.27;5.12;;;24.20;48.50;;;;;;2570488;54;21206;-77
2022/07/20 02:58:10;;;;;;;9.18;5.25;;;24.20;48.70;;;;;;2328035;57;21533;-76
2022/07/20 03:00:39;;;;;;;12.75;5.95;;;24.10;48.60;;;;;;2327354;57;21062;-76
2022/07/20 03:03:06;;;;;;;7.97;5.57;;;24.20;48.60;;;;;;2328248;57;21078;-77
2022/07/20 03:05:35;;;;;;;7.12;5.30;;;24.10;48.50;;;;;;2327335;57;21541;-76
2022/07/20 03:08:04;;;;;;;14.52;5.35;;;24.10;48.50;;;;;;2328061;57;21074;-77
2022/07/20 03:10:31;;;;;;;10.10;5.25;;;24.10;49.00;;;;;;2328145;57;21066;-76
2022/07/20 03:12:58;;;;;;;9.95;5.00;;;24.10;48.70;;;;;;2327840;57;21560;-76
2022/07/20 03:15:26;;;;;;;9.75;5.40;;;24.10;49.40;;;;;;2327126;57;21125;-77
2022/07/20 03:17:55;;;;;;;7.87;5.03;;;24.10;48.70;;;;;;2326522;57;21356;-76
2022/07/20 03:20:27;;;;;;;8.45;5.03;;;24.10;49.20;;;;;;2327670;57;21114;-77
2022/07/20 03:22:55;;;;;;;8.43;5.25;;;24.10;49.00;;;;;;2328409;57;21053;-76
2022/07/20 03:25:23;;;;;;;8.40;4.95;;;24.10;49.40;;;;;;2327723;57;21537;-77
2022/07/20 03:27:54;;;;;;;7.60;5.12;;;24.10;48.90;;;;;;2327500;57;21110;-77
2022/07/20 03:30:22;;;;;;;6.75;4.95;;;24.10;48.80;;;;;;2327994;57;21109;-77
2022/07/20 03:35:25;;;;;;;8.15;5.60;;;24.10;49.20;;;;;;2334071;57;27758;-77
2022/07/20 03:37:53;;;;;;;7.32;4.75;;;23.80;49.50;;;;;;2346162;57;21117;-77
2022/07/20 03:40:20;;;;;;;8.45;5.07;;;24.00;49.70;;;;;;2352541;56;21051;-76
2022/07/20 03:42:47;;;;;;;8.27;5.50;;;24.00;49.10;;;;;;2373414;56;21106;-77
2022/07/20 03:45:15;;;;;;;11.35;5.55;;;24.10;49.00;;;;;;2626378;52;21105;-77
2022/07/20 03:47:42;;;;;;;12.50;5.50;;;24.10;48.70;;;;;;2373163;56;21047;-76
2022/07/20 03:50:10;;;;;;;8.38;5.07;;;24.10;48.70;;;;;;2373061;56;21111;-76
2022/07/20 03:52:37;;;;;;;7.12;4.90;;;24.10;48.90;;;;;;2373710;56;21043;-77
2022/07/20 03:55:06;;;;;;;7.62;5.25;;;24.10;49.10;;;;;;2373536;56;21055;-76
2022/07/20 03:57:34;;;;;;;7.20;5.37;;;24.10;49.30;;;;;;2372944;56;21661;-77
2022/07/20 04:00:01;;;;;;;10.15;5.22;;;24.10;49.20;;;;;;2373262;56;21383;-76
2022/07/20 04:02:29;;;;;;;9.57;5.15;;;24.10;49.20;;;;;;2373536;56;21664;-76
2022/07/20 04:04:56;;;;;;;9.05;5.53;;;24.10;49.10;;;;;;2373689;56;21848;-77
2022/07/20 04:07:23;;;;;;;5.45;4.07;;;24.10;49.00;;;;;;2371981;56;21577;-77
2022/07/20 04:09:50;;;;;;;7.20;5.03;;;24.10;48.90;;;;;;2372399;56;21020;-76
2022/07/20 04:12:20;;;;;;;8.05;5.15;;;24.10;49.10;;;;;;2373773;56;21039;-76
2022/07/20 04:14:50;;;;;;;10.15;4.90;;;24.10;49.10;;;;;;2373167;56;21123;-77
2022/07/20 04:17:20;;;;;;;10.10;5.57;;;24.00;49.00;;;;;;2373581;56;21047;-76
2022/07/20 04:19:47;;;;;;;6.78;4.93;;;24.00;48.70;;;;;;2373259;56;21627;-76
2022/07/20 04:22:15;;;;;;;6.40;4.65;;;24.00;48.90;;;;;;2373062;56;21095;-76
2022/07/20 04:24:42;;;;;;;6.55;5.20;;;24.00;49.10;;;;;;2372585;56;21031;-77
2022/07/20 04:27:09;;;;;;;8.35;5.03;;;24.10;49.10;;;;;;2373399;56;21137;-77
2022/07/20 04:29:36;;;;;;;9.00;5.57;;;24.10;49.30;;;;;;2373602;56;21593;-76
2022/07/20 04:32:05;;;;;;;9.00;4.70;;;24.10;49.40;;;;;;2373815;56;21087;-76
2022/07/20 04:34:33;;;;;;;6.97;4.87;;;24.10;49.20;;;;;;2373290;56;21051;-77
2022/07/20 04:37:00;;;;;;;9.27;5.12;;;24.10;49.20;;;;;;2372459;56;21074;-76
2022/07/20 04:39:27;;;;;;;6.45;4.72;;;24.10;49.10;;;;;;2373051;56;21073;-77
2022/07/20 04:41:55;;;;;;;7.22;5.57;;;24.10;49.10;;;;;;2374239;56;21051;-76
2022/07/20 04:44:22;;;;;;;7.62;5.20;;;24.10;49.00;;;;;;2373927;56;21117;-76
2022/07/20 04:46:49;;;;;;;9.00;4.93;;;24.10;49.20;;;;;;2372411;56;21019;-76
2022/07/20 04:49:17;;;;;;;7.15;5.43;;;24.10;49.30;;;;;;2373145;56;21057;-76
2022/07/20 04:51:44;;;;;;;9.60;4.95;;;24.10;49.40;;;;;;2310310;55;21054;-72
2022/07/20 04:54:11;;;;;;;8.00;4.97;;;24.10;49.40;;;;;;2300688;58;21580;-74
2022/07/20 04:56:39;;;;;;;7.12;5.03;;;24.10;49.50;;;;;;2300548;58;21062;-74
2022/07/20 04:59:06;;;;;;;8.68;4.85;;;24.20;49.40;;;;;;2538718;54;21042;-74
2022/07/20 05:01:33;;;;;;;6.97;5.00;;;24.20;49.30;;;;;;2301432;58;21118;-75
2022/07/20 05:04:01;;;;;;;8.48;5.40;;;24.20;49.60;;;;;;2301242;58;21130;-72
2022/07/20 05:06:28;;;;;;;9.00;5.07;;;24.20;49.40;;;;;;2298104;58;21077;-75
2022/07/20 05:08:56;;;;;;;7.32;5.05;;;24.20;49.20;;;;;;2297304;58;21201;-74
2022/07/20 05:11:23;;;;;;;9.23;5.40;;;24.20;49.30;;;;;;2300085;58;21063;-75
2022/07/20 05:13:50;;;;;;;6.82;5.10;;;24.20;49.40;;;;;;2300337;58;21070;-73
2022/07/20 05:16:18;;;;;;;10.30;5.57;;;24.20;49.30;;;;;;2300236;58;21059;-73
2022/07/20 05:18:45;;;;;;;9.65;5.03;;;24.20;49.10;;;;;;2296987;58;21568;-74
2022/07/20 05:21:12;;;;;;;9.45;5.35;;;24.20;49.10;;;;;;2299661;58;21178;-77
2022/07/20 05:23:39;;;;;;;7.65;5.20;;;24.30;49.20;;;;;;2298539;58;21111;-74
2022/07/20 05:26:07;;;;;;;9.68;5.00;;;24.30;49.10;;;;;;2299484;58;21046;-73
2022/07/20 05:28:34;;;;;;;10.35;4.82;;;24.30;49.20;;;;;;2300528;58;21058;-74
2022/07/20 05:31:03;;;;;;;6.65;4.95;;;24.30;49.20;;;;;;2299570;58;21055;-74
2022/07/20 05:33:30;;;;;;;10.48;5.20;;;24.40;49.40;;;;;;2538090;54;21122;-75
2022/07/20 05:36:00;;;;;;;9.27;5.15;;;24.40;49.10;;;;;;2299671;58;21158;-74
2022/07/20 05:38:27;;;;;;;7.47;5.00;;;24.40;49.10;;;;;;2538917;54;21129;-74
2022/07/20 05:40:55;;;;;;;6.80;5.12;;;24.50;49.10;;;;;;2300908;58;21055;-75
2022/07/20 05:43:23;;;;;;;6.25;4.90;;;24.50;48.90;;;;;;2299974;58;21600;-74
2022/07/20 05:45:50;;;;;;;7.90;5.12;;;24.50;48.90;;;;;;2298871;58;21063;-75
2022/07/20 05:48:18;;;;;;;7.68;5.25;;;24.50;48.70;;;;;;2300079;58;21078;-73
2022/07/20 05:50:45;;;;;;;9.35;5.10;;;24.60;48.90;;;;;;2299953;58;21082;-75
2022/07/20 05:53:13;;;;;;;10.65;5.20;;;24.60;49.20;;;;;;2299651;58;21137;-75
2022/07/20 05:55:42;;;;;;;8.73;5.53;;;24.60;49.30;;;;;;2299446;58;21077;-74
2022/07/20 05:58:10;;;;;;;7.43;4.53;;;24.70;48.90;;;;;;2300297;58;21050;-74
2022/07/20 06:00:38;;;;;;;6.12;4.95;;;24.70;48.70;;;;;;2298846;58;21098;-75
2022/07/20 06:03:06;;;;;;;7.03;4.87;;;24.70;48.70;;;;;;2298715;58;21150;-75
2022/07/20 06:05:33;;;;;;;6.85;4.90;;;24.80;48.70;;;;;;2298908;58;21082;-74
2022/07/20 06:08:03;;;;;;;6.40;4.50;;;24.80;48.50;;;;;;2299125;58;21070;-77
2022/07/20 06:10:31;;;;;;;6.72;4.72;;;24.80;48.50;;;;;;2298721;58;21050;-77
2022/07/20 06:13:00;;;;;;;7.95;4.93;;;24.90;48.50;;;;;;2300857;58;21050;-75
2022/07/20 06:15:28;;;;;;;6.60;4.75;;;24.90;48.20;;;;;;2300114;58;21141;-74
2022/07/20 06:17:56;;;;;;;5.62;4.30;;;25.00;48.40;;;;;;2301184;58;21125;-72
2022/07/20 06:20:25;;;;;;;9.82;4.32;;;25.10;48.40;;;;;;2538595;54;21038;-74
2022/07/20 06:22:52;;;;;;;8.57;4.47;;;25.10;48.40;;;;;;2301678;58;21041;-76
2022/07/20 06:25:20;;;;;;;6.00;4.35;;;25.20;48.30;;;;;;2300615;58;21070;-74
2022/07/20 06:27:48;;;;;;;6.05;4.43;;;25.20;48.30;;;;;;2300887;58;21070;-74
2022/07/20 06:30:15;;;;;;;6.47;4.55;;;25.30;48.00;;;;;;2300977;58;21075;-75
2022/07/20 06:32:43;;;;;;;7.25;4.60;;;25.30;47.90;;;;;;2301372;58;21134;-75
2022/07/20 06:35:11;;;;;;;6.18;4.80;;;25.40;48.20;;;;;;2300446;58;21137;-74
2022/07/20 06:37:40;;;;;;;6.22;4.75;;;25.40;48.10;;;;;;2300978;58;21122;-74
2022/07/20 06:40:09;;;;;;;7.03;4.60;;;25.50;48.10;;;;;;2300609;58;21525;-75
2022/07/20 06:42:36;;;;;;;7.85;4.32;;;25.50;48.30;;;;;;2300536;58;21620;-75
2022/07/20 06:45:05;;;;;;;13.05;5.57;;;25.50;48.40;;;;;;2538091;54;21111;-75
2022/07/20 06:47:33;;;;;;;9.35;4.78;;;25.60;48.60;;;;;;2300615;58;21090;-75
2022/07/20 06:50:00;;;;;;;7.80;4.30;;;25.60;48.50;;;;;;2301514;58;21063;-76
2022/07/20 06:52:29;;;;;;;7.68;4.50;;;25.70;48.60;;;;;;2300983;58;21541;-75
2022/07/20 06:54:57;;;;;;;5.68;4.70;;;25.70;48.30;;;;;;2301479;58;21077;-75
2022/07/20 06:57:25;;;;;;;8.00;4.53;;;25.70;48.40;;;;;;2300847;58;21114;-75
2022/07/20 06:59:52;;;;;;;5.80;4.43;;;25.80;48.60;;;;;;2300675;58;21126;-75
2022/07/20 07:02:20;;;;;;;5.85;4.50;;;25.80;48.60;;;;;;2301367;58;21065;-75
2022/07/20 07:04:48;;;;;;;6.00;4.68;;;25.90;48.10;;;;;;2538619;54;21607;-74
2022/07/20 07:07:15;;;;;;;7.90;4.70;;;25.90;47.60;;;;;;2300581;58;21079;-72
2022/07/20 07:09:43;;;;;;;7.25;4.28;;;25.90;47.60;;;;;;2301222;58;21051;-74
2022/07/20 07:12:10;;;;;;;5.80;4.30;;;25.90;47.30;;;;;;2300254;58;21142;-75
2022/07/20 07:14:37;;;;;;;6.60;4.47;;;26.00;47.30;;;;;;2301040;58;21055;-75
2022/07/20 07:17:05;;;;;;;6.82;4.80;;;26.00;47.30;;;;;;2300499;58;21743;-75
2022/07/20 07:19:32;;;;;;;5.07;4.15;;;26.10;47.50;;;;;;2300795;58;21124;-75
2022/07/20 07:22:00;;;;;;;5.45;4.22;;;26.10;47.50;;;;;;2538254;54;21619;-75
2022/07/20 07:24:27;;;;;;;6.50;4.55;;;26.20;47.60;;;;;;2301518;58;21544;-76
2022/07/20 07:26:54;;;;;;;6.05;4.53;;;26.20;47.40;;;;;;2299978;58;21563;-74
2022/07/20 07:29:22;;;;;;;12.35;5.10;;;26.30;47.30;;;;;;2300923;58;21067;-75
2022/07/20 07:31:49;;;;;;;5.47;4.40;;;26.40;47.50;;;;;;2301203;58;21058;-74
2022/07/20 07:34:16;;;;;;;5.62;4.43;;;26.40;47.40;;;;;;2300822;58;21621;-74
2022/07/20 07:36:44;;;;;;;7.97;5.15;;;26.50;47.30;;;;;;2300903;58;21081;-75
2022/07/20 07:39:11;;;;;;;7.30;5.05;;;26.60;47.70;;;;;;2301046;58;21130;-76
2022/07/20 07:41:38;;;;;;;7.90;4.80;;;26.60;47.80;;;;;;2301740;58;22182;-75
2022/07/20 07:44:06;;;;;;;9.82;4.53;;;26.70;47.30;;;;;;2301221;58;21043;-74
2022/07/20 07:46:33;;;;;;;6.10;4.60;;;26.80;47.10;;;;;;2299943;58;21086;-73
2022/07/20 07:49:00;;;;;;;5.85;4.30;;;26.80;46.90;;;;;;2300331;58;21051;-74
2022/07/20 07:51:28;;;;;;;6.72;4.05;;;26.90;47.20;;;;;;2298401;58;21071;-74
2022/07/20 07:53:55;;;;;;;4.93;4.03;;;27.00;47.80;;;;;;2301192;58;22173;-75
2022/07/20 07:56:23;;;;;;;7.30;4.25;;;27.00;46.80;;;;;;2537885;54;21136;-76
2022/07/20 07:58:50;;;;;;;5.07;4.20;;;27.10;46.20;;;;;;2301297;58;21114;-74
2022/07/20 08:01:17;;;;;;;7.25;4.55;;;27.10;46.10;;;;;;2300995;58;21057;-74
2022/07/20 08:03:45;;;;;;;7.43;4.25;;;27.20;46.30;;;;;;2537703;54;21066;-77
2022/07/20 08:06:12;;;;;;;7.35;4.70;;;27.20;46.50;;;;;;2536948;54;21625;-74
2022/07/20 08:08:40;;;;;;;5.72;4.40;;;27.30;45.40;;;;;;2299245;58;21047;-74
2022/07/20 08:11:07;;;;;;;6.95;4.30;;;27.40;45.00;;;;;;2298410;58;21125;-77
2022/07/20 08:13:34;;;;;;;6.47;3.70;;;27.40;45.20;;;;;;2537011;54;21102;-75
2022/07/20 08:16:02;;;;;;;6.65;4.37;;;27.50;45.10;;;;;;2536768;54;21050;-75
2022/07/20 08:18:29;;;;;;;6.00;3.83;;;27.60;45.50;;;;;;2300307;58;21066;-75
2022/07/20 08:20:56;;;;;;;6.15;4.40;;;27.60;46.40;;;;;;2300377;58;21050;-75
2022/07/20 08:23:24;;;;;;;6.93;4.32;;;27.70;45.20;;;;;;2300288;58;21624;-74
2022/07/20 08:25:51;;;;;;;10.80;4.45;;;27.80;44.70;;;;;;2299467;58;21037;-74
2022/07/20 08:28:21;;;;;;;7.22;4.30;;;27.80;44.00;;;;;;2300903;58;21102;-74
2022/07/20 08:30:50;;;;;;;6.03;4.12;;;27.90;44.60;;;;;;2300579;58;21168;-74
2022/07/20 08:33:18;;;;;;;6.93;4.05;;;28.00;44.50;;;;;;2300121;58;21078;-75
2022/07/20 08:35:45;;;;;;;5.85;4.30;;;28.00;44.20;;;;;;2298142;58;21349;-73
2022/07/20 08:38:13;;;;;;;10.25;4.70;;;28.10;44.00;;;;;;2299799;58;21054;-74
2022/07/20 08:40:40;;;;;;;6.82;3.87;;;28.20;43.20;;;;;;2298560;58;21395;-75
2022/07/20 08:43:08;;;;;;;6.28;4.07;;;28.20;43.40;;;;;;2299396;58;21134;-74
2022/07/20 08:45:36;;;;;;;6.43;4.18;;;28.40;43.50;;;;;;2536952;54;21545;-74
2022/07/20 08:48:08;;;;;;;7.93;4.32;;;28.40;43.90;;;;;;2300280;58;21158;-75
2022/07/20 08:50:37;;;;;;;9.52;4.05;;;28.40;43.00;;;;;;2299260;58;21142;-74
2022/07/20 08:53:05;;;;;;;6.07;3.30;;;28.50;42.80;;;;;;2535452;54;21628;-75
2022/07/20 08:55:33;;;;;;;5.90;4.15;;;28.60;43.90;;;;;;2298954;58;21552;-74
2022/07/20 08:58:00;;;;;;;8.05;3.87;;;28.60;43.90;;;;;;2298497;58;21154;-75
2022/07/20 09:00:28;;;;;;;7.53;4.40;;;28.70;44.00;;;;;;2299981;58;21162;-74
2022/07/20 09:02:57;;;;;;;6.30;4.10;;;28.80;42.70;;;;;;2299846;58;21137;-74
2022/07/20 09:05:28;;;;;;;6.12;3.58;;;28.80;42.60;;;;;;2299432;58;21062;-77
2022/07/20 09:07:57;;;;;;;7.82;3.90;;;28.90;42.10;;;;;;2536918;54;21122;-77
2022/07/20 09:10:26;;;;;;;7.65;4.03;;;28.90;42.50;;;;;;2535772;54;21074;-74
2022/07/20 09:12:59;;;;;;;8.07;4.32;;;29.00;42.50;;;;;;2536213;54;21055;-76
2022/07/20 09:15:34;;;;;;;6.05;4.40;;;29.00;42.20;;;;;;2298728;58;21074;-75
2022/07/20 09:18:14;;;;;;;4.85;3.87;;;29.10;42.10;;;;;;2536458;54;21047;-74
2022/07/20 09:20:43;;;;;;;4.85;3.90;;;29.20;41.50;;;;;;2298274;58;21113;-75
2022/07/20 09:23:14;;;;;;;4.95;4.22;;;29.20;41.60;;;;;;2298652;58;21071;-74
2022/07/20 09:28:37;;;;;;;6.15;3.95;;;29.40;40.50;;;;;;2354072;57;22045;-75
2022/07/20 09:31:11;;;;;;;13.85;5.00;;;29.40;40.70;;;;;;2388306;56;21029;-76
2022/07/20 09:33:39;;;;;;;11.25;4.20;;;29.50;40.10;;;;;;2400887;56;21030;-76
2022/07/20 09:36:07;;;;;;;7.15;4.82;;;29.50;40.00;;;;;;2400660;56;21117;-75
2022/07/20 09:38:38;;;;;;;7.87;4.80;;;29.60;40.40;;;;;;2403341;56;21029;-76
2022/07/20 09:41:20;;;;;;;8.77;5.62;;;29.60;40.50;;;;;;2402119;56;21706;-76
2022/07/20 09:43:48;;;;;;;9.57;6.12;;;29.70;40.30;;;;;;2403471;56;21014;-76
2022/07/20 09:46:17;;;;;;;11.45;6.37;;;29.70;40.00;;;;;;2401872;56;21339;-76
2022/07/20 09:48:46;;;;;;;9.05;6.05;;;29.80;39.70;;;;;;2403411;56;21085;-75
2022/07/20 09:51:25;;;;;;;11.02;7.72;;;29.90;39.50;;;;;;2403206;56;21045;-75
2022/07/20 09:53:54;;;;;;;10.32;7.60;;;30.00;39.30;;;;;;2403218;56;21473;-76
2022/07/20 09:56:24;;;;;;;12.37;9.23;;;30.00;40.20;;;;;;2402490;56;21654;-76
2022/07/20 09:58:53;;;;;;;13.48;9.60;;;30.10;39.00;;;;;;2402637;56;21315;-73
2022/07/20 10:01:22;;;;;;;15.43;10.13;;;30.20;39.00;;;;;;2401678;56;21113;-77
2022/07/20 10:03:51;;;;;;;14.05;9.05;;;30.30;39.10;;;;;;2663350;52;21027;-75
2022/07/20 10:06:20;;;;;;;10.73;8.75;;;30.40;39.20;;;;;;2402180;56;21053;-76
2022/07/20 10:08:48;;;;;;;14.75;8.45;;;30.50;38.70;;;;;;2401084;56;21022;-74
2022/07/20 10:11:17;;;;;;;14.27;7.90;;;30.50;38.50;;;;;;2661703;52;21050;-76
2022/07/20 10:13:45;;;;;;;15.70;8.55;;;30.60;37.80;;;;;;2401879;56;21046;-72
2022/07/20 10:16:20;;;;;;;14.65;8.30;;;30.70;37.90;;;;;;2402559;56;21112;-75
2022/07/20 10:18:48;;;;;;;11.70;7.37;;;30.70;38.80;;;;;;2403811;56;21050;-76
2022/07/20 10:21:37;;;;;;;11.40;7.05;;;30.80;37.20;;;;;;2404022;56;21121;-75
2022/07/20 10:24:15;;;;;;;9.98;6.15;;;30.90;36.70;;;;;;2402364;56;21049;-74
2022/07/20 10:26:43;;;;;;;8.43;5.40;;;30.90;36.80;;;;;;2401979;56;21109;-74
2022/07/20 10:29:23;;;;;;;6.62;4.85;;;31.00;37.20;;;;;;2403780;56;21065;-76
2022/07/20 10:31:51;;;;;;;5.18;3.92;;;31.10;36.60;;;;;;2663751;52;21026;-75
2022/07/20 10:34:36;;;;;;;6.25;3.60;;;31.10;36.60;;;;;;2403616;56;21101;-75
2022/07/20 10:37:23;;;;;;;6.65;3.83;;;31.20;36.30;;;;;;2400993;56;21603;-74
2022/07/20 10:39:52;;;;;;;5.18;3.87;;;31.30;36.30;;;;;;2402094;56;21104;-75
2022/07/20 10:42:28;;;;;;;7.05;4.00;;;31.30;36.30;;;;;;2402372;56;21014;-75
2022/07/20 10:45:28;;;;;;;4.53;3.62;;;31.40;36.60;;;;;;2400767;56;21049;-75
2022/07/20 10:47:57;;;;;;;5.87;3.75;;;31.50;36.50;;;;;;2401530;56;21042;-76
2022/07/20 10:50:28;;;;;;;5.87;3.67;;;31.50;36.60;;;;;;2402032;56;21074;-76
2022/07/20 10:52:58;;;;;;;4.57;3.58;;;31.60;35.30;;;;;;2569794;52;69041;-83
2022/07/20 10:55:51;;;;;;;5.87;3.40;;;31.70;34.60;;;;;;2352393;57;21045;-83
2022/07/20 10:58:21;;;;;;;8.38;3.80;;;31.80;35.30;;;;;;2352557;57;21049;-83
2022/07/20 11:00:51;;;;;;;5.70;3.60;;;31.90;35.40;;;;;;2599478;52;21202;-83
2022/07/20 11:03:21;;;;;;;7.53;3.70;;;32.00;35.10;;;;;;2350257;57;21049;-83
2022/07/20 11:05:59;;;;;;;5.40;3.37;;;32.10;34.70;;;;;;2350370;57;21117;-83
2022/07/20 11:08:27;;;;;;;7.45;3.20;;;32.30;33.20;;;;;;2597475;53;21041;-82
2022/07/20 11:10:55;;;;;;;5.90;3.55;;;32.40;32.80;;;;;;2596426;52;21053;-83
2022/07/20 11:13:23;;;;;;;4.60;3.35;;;32.60;33.00;;;;;;2351027;57;21041;-83
2022/07/20 11:15:51;;;;;;;5.50;3.70;;;32.70;32.60;;;;;;2348726;57;21120;-83
2022/07/20 11:18:22;;;;;;;6.43;3.40;;;32.90;32.10;;;;;;2350803;57;21025;-82
2022/07/20 11:20:51;;;;;;;6.65;3.53;;;33.10;31.90;;;;;;2348690;57;21045;-82
2022/07/20 11:23:21;;;;;;;4.75;3.25;;;33.30;32.40;;;;;;2597271;53;21065;-83
2022/07/20 11:25:51;;;;;;;6.70;3.28;;;33.40;32.80;;;;;;2349526;57;21037;-82
2022/07/20 11:28:22;;;;;;;5.78;3.67;;;33.70;32.10;;;;;;2597469;52;21089;-82
2022/07/20 11:30:51;;;;;;;4.75;3.10;;;33.80;31.10;;;;;;2596615;52;21104;-83
2022/07/20 11:33:27;;;;;;;4.10;2.70;;;34.00;31.00;;;;;;2348500;57;21061;-83
2022/07/20 11:35:56;;;;;;;6.90;3.78;;;34.20;30.80;;;;;;2348230;57;21077;-82
2022/07/20 11:38:32;;;;;;;8.20;3.47;;;34.30;30.70;;;;;;2348876;57;21162;-83
2022/07/20 11:41:01;;;;;;;3.97;3.22;;;34.50;30.00;;;;;;2596068;52;21124;-83
2022/07/20 11:43:29;;;;;;;6.03;3.70;;;34.60;29.10;;;;;;2596952;52;21120;-82
2022/07/20 11:46:10;;;;;;;6.15;3.15;;;34.80;28.60;;;;;;2348722;57;21095;-83
2022/07/20 11:48:38;;;;;;;4.55;3.10;;;35.00;28.50;;;;;;2595471;52;21120;-78
2022/07/20 11:51:06;;;;;;;9.30;3.50;;;35.10;28.20;;;;;;2347781;57;21120;-83
2022/07/20 11:53:35;;;;;;;8.27;4.18;;;35.20;28.10;;;;;;2595977;53;21084;-83
2022/07/20 11:56:06;;;;;;;6.45;3.55;;;35.40;28.00;;;;;;2595156;53;21041;-82
2022/07/20 11:58:35;;;;;;;4.80;3.30;;;35.50;28.40;;;;;;2597412;52;21660;-83
2022/07/20 12:01:04;;;;;;;6.07;3.53;;;35.70;29.10;;;;;;2347951;57;22491;-83
2022/07/20 12:03:34;;;;;;;6.93;3.25;;;35.70;28.10;;;;;;2596554;52;21131;-84
2022/07/20 12:06:03;;;;;;;6.53;3.37;;;35.90;27.10;;;;;;2347805;57;21160;-82
2022/07/20 12:08:31;;;;;;;3.65;2.97;;;36.00;27.80;;;;;;2596226;53;21064;-84
2022/07/20 12:11:00;;;;;;;5.78;2.92;;;36.00;28.10;;;;;;2347832;57;21057;-83
2022/07/20 12:13:27;;;;;;;5.78;2.85;;;36.10;28.10;;;;;;2596296;53;21133;-83
2022/07/20 12:16:02;;;;;;;5.45;3.33;;;36.20;26.90;;;;;;2347740;57;21069;-83
2022/07/20 12:18:37;;;;;;;5.53;3.00;;;36.30;26.50;;;;;;2349248;57;21195;-83
2022/07/20 12:21:06;;;;;;;5.30;3.25;;;36.40;27.20;;;;;;2595927;52;21053;-83
2022/07/20 12:23:34;;;;;;;6.85;3.10;;;36.50;27.50;;;;;;2349253;56;21112;-83
2022/07/20 12:26:03;;;;;;;8.23;3.12;;;36.60;27.60;;;;;;2348582;57;21080;-83
2022/07/20 12:28:33;;;;;;;5.32;3.22;;;36.60;26.80;;;;;;2348862;57;21065;-83
2022/07/20 12:31:21;;;;;;;5.80;3.47;;;36.70;26.90;;;;;;2595229;52;21091;-82
2022/07/20 12:36:47;;;;;;;6.20;3.55;;;37.00;26.90;;;;;;2333340;57;27825;-76
2022/07/20 12:39:34;;;;;;;4.45;3.10;;;37.80;25.60;;;;;;2345183;57;21025;-75
2022/07/20 12:42:10;;;;;;;5.10;3.58;;;37.50;26.00;;;;;;2370190;56;21596;-77
2022/07/20 12:44:38;;;;;;;5.75;3.10;;;37.50;25.80;;;;;;2371799;56;21042;-76
2022/07/20 12:47:06;;;;;;;5.00;3.15;;;37.60;25.60;;;;;;2372901;56;21125;-75
2022/07/20 12:49:33;;;;;;;5.03;3.30;;;37.70;25.20;;;;;;2371859;56;21054;-76
2022/07/20 12:52:01;;;;;;;7.97;3.50;;;37.80;24.80;;;;;;2625710;52;21145;-76
2022/07/20 12:54:29;;;;;;;4.05;3.17;;;37.80;24.80;;;;;;2373089;56;21047;-76
2022/07/20 12:56:58;;;;;;;7.00;3.75;;;37.90;24.80;;;;;;2372176;56;21066;-76
2022/07/20 12:59:26;;;;;;;4.68;3.00;;;37.90;25.00;;;;;;2373376;56;21130;-75
2022/07/20 13:01:53;;;;;;;5.07;2.90;;;38.00;25.70;;;;;;2373376;56;21078;-75
2022/07/20 13:06:59;;;;;;;4.90;3.00;;;38.10;25.70;;;;;;2533366;53;22696;-75